createdAt,value
2019-04-28T00:01:43.272Z,24.71
2019-04-28T00:04:11.455Z,24.56
2019-04-28T00:06:37.659Z,24.29
2019-04-28T00:09:05.607Z,24.12
2019-04-28T00:11:31.850Z,24.23
2019-04-28T00:13:58.081Z,24.18
2019-04-28T00:16:24.327Z,24.44
2019-04-28T00:18:51.166Z,24.58
2019-04-28T00:21:21.996Z,25.04
2019-04-28T00:23:53.009Z,24.57
2019-04-28T00:26:36.139Z,24.15
2019-04-28T00:29:02.360Z,23.21
2019-04-28T00:31:28.641Z,23.41
2019-04-28T00:33:54.794Z,23.34
2019-04-28T00:36:36.023Z,23.85
2019-04-28T00:39:03.883Z,24.62
2019-04-28T00:41:30.873Z,25.62
2019-04-28T00:43:57.257Z,25.72
2019-04-28T00:46:25.340Z,26.15
2019-04-28T00:48:51.491Z,26.34
2019-04-28T00:51:17.691Z,26.34
2019-04-28T00:53:44.472Z,26.33
2019-04-28T00:56:12.120Z,26.20
2019-04-28T00:58:38.533Z,25.94
2019-04-28T01:01:15.539Z,25.59
2019-04-28T01:03:42.124Z,25.61
2019-04-28T01:06:08.519Z,25.73
2019-04-28T01:08:34.665Z,25.62
2019-04-28T01:11:01.784Z,25.08
2019-04-28T01:13:28.133Z,24.96
2019-04-28T01:15:59.430Z,25.09
2019-04-28T01:21:10.709Z,25.13
2019-04-28T01:23:37.151Z,25.50
2019-04-28T01:26:03.431Z,25.39
2019-04-28T01:28:29.816Z,25.26
2019-04-28T01:31:01.025Z,25.28
2019-04-28T01:33:34.624Z,25.27
2019-04-28T01:36:00.904Z,25.15
2019-04-28T01:38:27.099Z,25.00
2019-04-28T01:40:53.274Z,25.08
2019-04-28T01:43:19.688Z,25.36
2019-04-28T01:45:46.045Z,25.13
2019-04-28T01:48:12.204Z,25.77
2019-04-28T01:50:39.994Z,25.14
2019-04-28T01:53:06.303Z,25.05
2019-04-28T01:55:33.056Z,25.54
2019-04-28T01:57:59.707Z,25.38
2019-04-28T02:00:26.023Z,25.22
2019-04-28T02:02:52.178Z,25.20
2019-04-28T02:05:19.689Z,24.13
2019-04-28T02:07:46.163Z,23.82
2019-04-28T02:10:12.524Z,24.65
2019-04-28T02:12:40.328Z,24.33
2019-04-28T02:15:07.011Z,23.71
2019-04-28T02:17:33.266Z,22.74
2019-04-28T02:20:00.665Z,23.28
2019-04-28T02:22:29.957Z,23.78
2019-04-28T02:24:57.419Z,24.07
2019-04-28T02:27:23.702Z,24.44
2019-04-28T02:29:50.070Z,24.48
2019-04-28T02:32:16.646Z,23.46
2019-04-28T02:34:42.930Z,23.71
2019-04-28T02:37:11.276Z,25.17
2019-04-28T02:39:40.630Z,25.12
2019-04-28T02:42:06.148Z,25.04
2019-04-28T02:44:35.048Z,24.29
2019-04-28T02:47:01.048Z,24.35
2019-04-28T02:49:30.691Z,24.57
2019-04-28T02:52:10.655Z,24.58
2019-04-28T02:54:36.275Z,24.27
2019-04-28T02:57:02.459Z,23.63
2019-04-28T02:59:30.468Z,24.03
2019-04-28T03:01:56.709Z,23.28
2019-04-28T03:04:22.888Z,23.16
2019-04-28T03:06:51.639Z,22.55
2019-04-28T03:09:20.028Z,22.71
2019-04-28T03:11:45.723Z,22.93
2019-04-28T03:14:11.989Z,22.94
2019-04-28T03:16:40.908Z,22.66
2019-04-28T03:19:06.518Z,22.73
2019-04-28T03:21:32.733Z,22.61
2019-04-28T03:24:01.114Z,22.89
2019-04-28T03:26:38.104Z,23.06
2019-04-28T03:32:16.074Z,22.76
2019-04-28T03:34:26.632Z,24.23
2019-04-28T03:36:52.802Z,23.82
2019-04-28T03:39:20.497Z,23.21
2019-04-28T03:41:46.951Z,23.61
2019-04-28T03:44:13.240Z,23.76
2019-04-28T03:46:44.246Z,24.23
2019-04-28T03:49:12.328Z,24.16
2019-04-28T03:51:40.773Z,23.82
2019-04-28T03:54:06.590Z,24.07
2019-04-28T03:56:32.775Z,24.92
2019-04-28T03:59:00.442Z,25.80
2019-04-28T04:01:26.834Z,25.69
2019-04-28T04:03:53.027Z,26.01
2019-04-28T04:06:19.189Z,26.72
2019-04-28T04:08:45.472Z,25.81
2019-04-28T04:11:16.325Z,26.11
2019-04-28T04:13:44.407Z,25.79
2019-04-28T04:16:12.497Z,26.88
2019-04-28T04:18:40.930Z,26.33
2019-04-28T04:21:07.361Z,26.39
2019-04-28T04:23:33.555Z,26.21
2019-04-28T04:26:01.798Z,26.32
2019-04-28T04:28:30.254Z,29.93
2019-04-28T04:30:55.897Z,31.01
2019-04-28T04:33:22.058Z,29.19
2019-04-28T04:35:51.012Z,29.59
2019-04-28T04:38:16.318Z,27.28
2019-04-28T04:40:42.470Z,31.59
2019-04-28T04:43:11.193Z,32.77
2019-04-28T04:45:40.398Z,34.53
2019-04-28T04:48:06.010Z,36.28
2019-04-28T04:50:32.166Z,36.53
2019-04-28T04:52:58.387Z,37.29
2019-04-28T04:55:24.537Z,37.52
2019-04-28T04:57:50.803Z,34.94
2019-04-28T05:00:20.908Z,32.68
2019-04-28T05:02:54.625Z,31.84
2019-04-28T05:05:21.449Z,29.23
2019-04-28T05:07:47.604Z,25.57
2019-04-28T05:10:13.763Z,25.64
2019-04-28T05:12:40.464Z,26.61
2019-04-28T05:15:06.842Z,26.50
2019-04-28T05:17:33.017Z,30.01
2019-04-28T05:19:59.517Z,31.83
2019-04-28T05:22:29.956Z,32.70
2019-04-28T05:24:59.983Z,33.14
2019-04-28T05:27:26.275Z,34.45
2019-04-28T05:29:52.454Z,34.31
2019-04-28T05:32:20.424Z,32.77
2019-04-28T05:34:48.026Z,29.97
2019-04-28T05:37:14.782Z,29.41
2019-04-28T05:39:40.939Z,31.57
2019-04-28T05:42:07.144Z,31.14
2019-04-28T05:44:33.334Z,31.76
2019-04-28T05:46:59.676Z,32.95
2019-04-28T05:49:45.103Z,32.30
2019-04-28T05:52:31.097Z,29.79
2019-04-28T05:54:59.808Z,28.18
2019-04-28T05:57:39.950Z,27.55
2019-04-28T06:00:14.131Z,29.08
2019-04-28T06:02:55.502Z,33.07
2019-04-28T06:05:10.372Z,34.31
2019-04-28T06:07:41.001Z,33.87
2019-04-28T06:10:07.485Z,29.47
2019-04-28T06:12:33.786Z,27.78
2019-04-28T06:15:00.164Z,29.55
2019-04-28T06:17:26.354Z,31.92
2019-04-28T06:19:52.504Z,31.16
2019-04-28T06:22:18.826Z,30.19
2019-04-28T06:24:44.980Z,30.93
2019-04-28T06:27:11.162Z,29.55
2019-04-28T06:29:37.392Z,29.85
2019-04-28T06:32:03.553Z,29.34
2019-04-28T06:34:29.730Z,28.53
2019-04-28T06:36:55.933Z,29.62
2019-04-28T06:39:22.085Z,30.95
2019-04-28T06:41:48.270Z,31.30
2019-04-28T06:44:14.495Z,31.75
2019-04-28T06:46:40.653Z,30.36
2019-04-28T06:49:06.924Z,29.79
2019-04-28T06:51:33.141Z,29.11
2019-04-28T06:53:59.298Z,30.17
2019-04-28T06:56:25.475Z,30.17
2019-04-28T06:58:58.725Z,30.17
2019-04-28T07:01:19.839Z,29.56
2019-04-28T07:03:45.996Z,29.55
2019-04-28T07:06:12.207Z,30.26
2019-04-28T07:08:38.386Z,30.84
2019-04-28T07:11:04.555Z,29.61
2019-04-28T07:13:30.791Z,27.32
2019-04-28T07:15:57.888Z,28.54
2019-04-28T07:18:24.044Z,28.71
2019-04-28T07:20:52.167Z,28.41
2019-04-28T07:23:18.431Z,28.63
2019-04-28T07:25:44.691Z,29.13
2019-04-28T07:28:10.989Z,28.84
2019-04-28T07:30:39.093Z,29.80
2019-04-28T07:33:05.248Z,29.45
2019-04-28T07:35:31.496Z,28.87
2019-04-28T07:37:57.669Z,28.12
2019-04-28T07:40:23.826Z,27.42
2019-04-28T07:42:50.190Z,27.30
2019-04-28T07:45:16.694Z,28.28
2019-04-28T07:47:42.861Z,28.98
2019-04-28T07:50:09.180Z,29.06
2019-04-28T07:52:43.502Z,28.45
2019-04-28T07:55:09.890Z,27.92
2019-04-28T07:57:36.107Z,27.58
2019-04-28T08:00:03.387Z,27.27
2019-04-28T08:02:29.554Z,27.27
2019-04-28T08:04:55.781Z,27.52
2019-04-28T08:07:21.953Z,28.63
2019-04-28T08:09:48.113Z,29.31
2019-04-28T08:12:14.334Z,28.63
2019-04-28T08:14:40.494Z,28.16
2019-04-28T08:17:06.644Z,28.33
2019-04-28T08:19:32.868Z,28.11
2019-04-28T08:21:59.041Z,28.46
2019-04-28T08:24:25.295Z,29.45
2019-04-28T08:26:51.494Z,29.73
2019-04-28T08:29:17.664Z,30.47
2019-04-28T08:32:02.693Z,29.77
2019-04-28T08:34:28.977Z,29.78
2019-04-28T08:36:55.154Z,28.63
2019-04-28T08:39:24.177Z,28.14
2019-04-28T08:41:50.365Z,28.26
2019-04-28T08:44:16.529Z,28.32
2019-04-28T08:46:42.793Z,28.33
2019-04-28T08:49:09.170Z,29.39
2019-04-28T08:51:35.572Z,27.91
2019-04-28T08:54:01.806Z,28.41
2019-04-28T08:56:27.957Z,29.47
2019-04-28T08:58:54.136Z,30.64
2019-04-28T09:01:20.326Z,29.76
2019-04-28T09:03:46.483Z,30.85
2019-04-28T09:06:12.667Z,30.09
2019-04-28T09:08:38.852Z,30.34
2019-04-28T09:11:05.043Z,30.01
2019-04-28T09:13:31.319Z,31.66
2019-04-28T09:15:57.521Z,30.66
2019-04-28T09:18:23.698Z,30.51
2019-04-28T09:20:49.884Z,29.43
2019-04-28T09:23:16.104Z,29.49
2019-04-28T09:25:42.284Z,29.63
2019-04-28T09:28:08.460Z,30.03
2019-04-28T09:30:34.857Z,29.62
2019-04-28T09:33:01.021Z,29.34
2019-04-28T09:35:27.304Z,30.08
2019-04-28T09:37:53.532Z,31.68
2019-04-28T09:40:19.682Z,31.43
2019-04-28T09:42:53.289Z,30.23
2019-04-28T09:45:33.712Z,28.82
2019-04-28T09:47:59.923Z,29.88
2019-04-28T09:50:26.102Z,29.53
2019-04-28T09:52:52.321Z,29.08
2019-04-28T09:55:18.484Z,29.89
2019-04-28T09:57:44.632Z,31.10
2019-04-28T10:00:12.089Z,29.65
2019-04-28T10:02:38.269Z,30.47
2019-04-28T10:05:07.633Z,30.09
2019-04-28T10:07:33.848Z,31.79
2019-04-28T10:10:00.001Z,30.85
2019-04-28T10:12:27.311Z,30.33
2019-04-28T10:14:53.976Z,29.57
2019-04-28T10:17:20.184Z,28.95
2019-04-28T10:19:46.422Z,29.59
2019-04-28T10:22:12.633Z,29.79
2019-04-28T10:24:38.808Z,30.39
2019-04-28T10:27:06.988Z,29.56
2019-04-28T10:29:33.186Z,30.44
2019-04-28T10:31:59.345Z,30.01
2019-04-28T10:34:25.546Z,30.11
2019-04-28T10:36:51.760Z,30.72
2019-04-28T10:39:25.699Z,31.68
2019-04-28T10:41:51.960Z,30.93
2019-04-28T10:44:18.685Z,29.48
2019-04-28T10:46:44.970Z,28.90
2019-04-28T10:49:11.207Z,29.96
2019-04-28T10:51:37.423Z,31.10
2019-04-28T10:54:03.669Z,31.35
2019-04-28T10:56:29.825Z,30.94
2019-04-28T10:58:56.838Z,31.77
2019-04-28T11:01:23.121Z,33.07
2019-04-28T11:03:51.188Z,33.12
2019-04-28T11:06:17.503Z,33.21
2019-04-28T11:08:48.348Z,33.94
2019-04-28T11:11:19.460Z,32.50
2019-04-28T11:13:45.657Z,33.86
2019-04-28T11:16:13.742Z,34.09
2019-04-28T11:18:39.927Z,33.18
2019-04-28T11:21:06.183Z,32.96
2019-04-28T11:23:32.466Z,32.91
2019-04-28T11:25:58.667Z,33.16
2019-04-28T11:28:24.848Z,32.77
2019-04-28T11:30:51.024Z,31.94
2019-04-28T11:33:28.192Z,32.03
2019-04-28T11:35:54.380Z,30.57
2019-04-28T11:38:20.632Z,30.50
2019-04-28T11:40:47.077Z,32.23
2019-04-28T11:43:13.258Z,31.80
2019-04-28T11:45:39.513Z,29.48
2019-04-28T11:48:05.838Z,30.98
2019-04-28T11:50:32.461Z,30.39
2019-04-28T11:53:04.401Z,31.48
2019-04-28T11:55:30.624Z,32.87
2019-04-28T11:57:56.820Z,32.11
2019-04-28T12:00:25.004Z,30.93
2019-04-28T12:02:51.189Z,29.89
2019-04-28T12:05:19.284Z,28.40
2019-04-28T12:07:45.437Z,29.93
2019-04-28T12:10:16.294Z,29.00
2019-04-28T12:12:46.898Z,30.21
2019-04-28T12:15:17.664Z,29.98
2019-04-28T12:17:45.760Z,31.12
2019-04-28T12:20:13.832Z,29.49
2019-04-28T12:22:40.015Z,29.80
2019-04-28T12:25:06.646Z,28.85
2019-04-28T12:27:32.918Z,30.89
2019-04-28T12:29:59.091Z,31.72
2019-04-28T12:32:25.279Z,32.05
2019-04-28T12:34:51.435Z,31.34
2019-04-28T12:37:17.610Z,30.81
2019-04-28T12:39:43.828Z,30.39
2019-04-28T12:42:09.977Z,29.04
2019-04-28T12:44:36.166Z,30.07
2019-04-28T12:47:02.358Z,30.91
2019-04-28T12:49:42.478Z,30.77
2019-04-28T12:52:09.718Z,31.17
2019-04-28T12:54:37.770Z,31.63
2019-04-28T12:57:03.965Z,31.55
2019-04-28T12:59:34.951Z,30.81
2019-04-28T13:04:56.550Z,32.36
2019-04-28T13:07:22.814Z,31.92
2019-04-28T13:09:48.969Z,31.81
2019-04-28T13:12:15.189Z,30.84
2019-04-28T13:14:41.373Z,30.92
2019-04-28T13:17:07.531Z,31.76
2019-04-28T13:19:33.728Z,32.71
2019-04-28T13:21:59.925Z,31.74
2019-04-28T13:24:26.073Z,32.57
2019-04-28T13:26:52.408Z,31.94
2019-04-28T13:29:18.567Z,31.38
2019-04-28T13:31:44.721Z,32.41
2019-04-28T13:34:12.833Z,29.78
2019-04-28T13:36:38.992Z,30.75
2019-04-28T13:39:08.969Z,31.21
2019-04-28T13:41:37.376Z,31.52
2019-04-28T13:44:05.549Z,32.81
2019-04-28T13:46:31.706Z,31.65
2019-04-28T13:48:58.013Z,30.99
2019-04-28T13:51:24.163Z,31.20
2019-04-28T13:53:51.246Z,29.64
2019-04-28T13:56:17.541Z,29.79
2019-04-28T13:58:44.521Z,29.49
2019-04-28T14:04:20.992Z,30.58
2019-04-28T14:09:34.879Z,29.72
2019-04-28T14:12:01.069Z,30.79
2019-04-28T14:14:27.254Z,30.69
2019-04-28T14:16:53.405Z,31.56
2019-04-28T14:19:19.565Z,31.15
2019-04-28T14:21:45.751Z,30.68
2019-04-28T14:24:16.544Z,29.93
2019-04-28T14:26:42.887Z,30.57
2019-04-28T14:29:09.024Z,29.30
2019-04-28T14:31:35.251Z,28.97
2019-04-28T14:34:01.476Z,30.09
2019-04-28T14:36:41.086Z,30.46
2019-04-28T14:38:55.872Z,30.33
2019-04-28T14:41:22.090Z,30.75
2019-04-28T14:43:48.248Z,31.38
2019-04-28T14:46:14.443Z,31.20
2019-04-28T14:48:40.604Z,32.38
2019-04-28T14:51:06.835Z,31.64
2019-04-28T14:53:33.150Z,32.11
2019-04-28T14:55:59.285Z,31.50
2019-04-28T14:58:25.440Z,31.63
2019-04-28T15:01:09.933Z,30.83
2019-04-28T15:03:38.043Z,31.41
2019-04-28T15:06:06.086Z,29.98
2019-04-28T15:08:50.756Z,30.11
2019-04-28T15:14:07.149Z,29.77
2019-04-28T15:16:33.344Z,30.38
2019-04-28T15:18:59.518Z,30.71
2019-04-28T15:21:25.709Z,31.38
2019-04-28T15:23:51.881Z,31.21
2019-04-28T15:26:18.045Z,31.47
2019-04-28T15:28:44.240Z,31.50
2019-04-28T15:31:10.511Z,31.50
2019-04-28T15:33:36.670Z,31.32
2019-04-28T15:36:03.240Z,30.50
2019-04-28T15:38:29.474Z,30.45
2019-04-28T15:40:55.681Z,30.78
2019-04-28T15:43:21.894Z,29.84
2019-04-28T15:45:48.048Z,29.91
2019-04-28T15:48:14.209Z,30.64
2019-04-28T15:50:40.423Z,31.28
2019-04-28T15:53:06.690Z,30.44
2019-04-28T15:55:38.680Z,30.01
2019-04-28T15:58:23.208Z,29.74
2019-04-28T16:00:49.498Z,29.55
2019-04-28T16:03:15.647Z,28.66
2019-04-28T16:05:41.912Z,29.58
2019-04-28T16:08:08.091Z,28.69
2019-04-28T16:10:34.245Z,29.28
2019-04-28T16:13:00.429Z,29.87
2019-04-28T16:15:26.606Z,29.82
2019-04-28T16:17:52.779Z,30.39
2019-04-28T16:20:18.969Z,29.79
2019-04-28T16:22:45.140Z,29.27
2019-04-28T16:25:11.300Z,29.44
2019-04-28T16:27:37.571Z,29.27
2019-04-28T16:30:05.373Z,29.11
2019-04-28T16:32:31.548Z,29.31
2019-04-28T16:34:57.738Z,29.42
2019-04-28T16:37:23.896Z,29.18
2019-04-28T16:39:50.092Z,28.88
2019-04-28T16:42:21.649Z,28.67
2019-04-28T16:44:48.737Z,28.15
2019-04-28T16:47:14.914Z,27.88
2019-04-28T16:49:41.105Z,27.95
2019-04-28T16:52:07.285Z,27.60
2019-04-28T16:54:33.446Z,27.99
2019-04-28T16:57:04.319Z,28.23
2019-04-28T16:59:32.401Z,28.01
2019-04-28T17:02:02.971Z,28.07
2019-04-28T17:04:29.181Z,27.61
2019-04-28T17:06:55.351Z,27.66
2019-04-28T17:09:23.408Z,27.43
2019-04-28T17:11:49.613Z,27.02
2019-04-28T17:14:15.784Z,26.62
2019-04-28T17:16:41.963Z,26.52
2019-04-28T17:19:08.446Z,26.45
2019-04-28T17:21:34.743Z,26.06
2019-04-28T17:24:00.905Z,26.40
2019-04-28T17:26:27.093Z,26.70
2019-04-28T17:28:53.565Z,26.57
2019-04-28T17:31:19.739Z,27.00
2019-04-28T17:33:45.927Z,26.95
2019-04-28T17:36:12.089Z,26.88
2019-04-28T17:38:38.269Z,26.62
2019-04-28T17:41:04.539Z,26.59
2019-04-28T17:43:30.716Z,26.38
2019-04-28T17:45:56.886Z,26.44
2019-04-28T17:48:27.742Z,26.59
2019-04-28T17:50:53.902Z,26.50
2019-04-28T17:53:20.074Z,26.22
2019-04-28T17:55:46.303Z,26.11
2019-04-28T17:58:12.558Z,26.11
2019-04-28T18:00:55.770Z,25.91
2019-04-28T18:03:40.354Z,25.39
2019-04-28T18:06:18.367Z,25.52
2019-04-28T18:08:44.834Z,25.67
2019-04-28T18:11:11.094Z,25.99
2019-04-28T18:13:37.314Z,25.93
2019-04-28T18:16:21.740Z,25.93
2019-04-28T18:18:55.421Z,25.77
2019-04-28T18:21:21.699Z,25.39
2019-04-28T18:23:47.901Z,25.54
2019-04-28T18:26:14.055Z,25.56
2019-04-28T18:28:40.334Z,25.68
2019-04-28T18:31:11.878Z,25.59
2019-04-28T18:33:56.504Z,25.75
2019-04-28T18:36:24.568Z,26.07
2019-04-28T18:39:01.245Z,26.09
2019-04-28T18:41:45.874Z,26.12
2019-04-28T18:44:13.987Z,26.22
2019-04-28T18:46:40.261Z,26.17
2019-04-28T18:49:06.413Z,26.07
2019-04-28T18:51:32.617Z,25.98
2019-04-28T18:53:58.806Z,25.95
2019-04-28T18:56:24.979Z,25.97
2019-04-28T18:58:51.288Z,25.86
2019-04-28T19:01:35.846Z,25.31
2019-04-28T19:04:02.637Z,24.77
2019-04-28T19:06:28.895Z,24.66
2019-04-28T19:08:56.986Z,24.65
2019-04-28T19:11:31.115Z,24.73
2019-04-28T19:17:04.386Z,24.67
2019-04-28T19:19:32.474Z,24.79
2019-04-28T19:21:58.632Z,24.64
2019-04-28T19:24:25.870Z,24.54
2019-04-28T19:26:52.054Z,23.94
2019-04-28T19:29:18.217Z,23.96
2019-04-28T19:31:44.531Z,23.86
2019-04-28T19:34:10.729Z,23.40
2019-04-28T19:36:36.995Z,23.83
2019-04-28T19:39:05.019Z,24.01
2019-04-28T19:41:31.192Z,24.13
2019-04-28T19:43:57.369Z,24.14
2019-04-28T19:46:23.678Z,24.22
2019-04-28T19:48:49.866Z,24.40
2019-04-28T19:51:30.831Z,24.27
2019-04-28T19:53:46.148Z,24.38
2019-04-28T19:59:04.368Z,24.66
2019-04-28T20:01:32.251Z,24.36
2019-04-28T20:03:58.530Z,24.53
2019-04-28T20:06:24.720Z,24.55
2019-04-28T20:08:50.908Z,24.48
2019-04-28T20:11:17.083Z,24.81
2019-04-28T20:13:43.281Z,24.62
2019-04-28T20:16:09.435Z,24.81
2019-04-28T20:18:35.624Z,25.04
2019-04-28T20:21:02.311Z,25.11
2019-04-28T20:23:28.492Z,25.01
2019-04-28T20:25:54.667Z,24.81
2019-04-28T20:28:20.865Z,24.45
2019-04-28T20:30:47.022Z,24.04
2019-04-28T20:33:13.204Z,23.85
2019-04-28T20:35:43.845Z,23.47
2019-04-28T20:38:11.903Z,23.73
2019-04-28T20:40:56.468Z,23.69
2019-04-28T20:43:24.527Z,23.91
2019-04-28T20:45:50.782Z,23.64
2019-04-28T20:48:16.989Z,23.61
2019-04-28T20:50:43.139Z,23.98
2019-04-28T20:53:09.318Z,23.42
2019-04-28T20:55:35.529Z,23.62
2019-04-28T20:58:01.697Z,23.39
2019-04-28T21:00:27.883Z,23.64
2019-04-28T21:02:54.076Z,23.32
2019-04-28T21:05:20.235Z,23.55
2019-04-28T21:07:46.510Z,23.58
2019-04-28T21:10:12.820Z,23.37
2019-04-28T21:12:38.972Z,23.53
2019-04-28T21:15:05.490Z,23.67
2019-04-28T21:17:31.773Z,23.65
2019-04-28T21:19:57.925Z,23.40
2019-04-28T21:22:24.202Z,23.31
2019-04-28T21:24:50.416Z,23.34
2019-04-28T21:27:16.572Z,23.38
2019-04-28T21:29:42.737Z,24.00
2019-04-28T21:32:08.948Z,23.45
2019-04-28T21:34:35.224Z,23.71
2019-04-28T21:37:01.381Z,23.74
2019-04-28T21:39:27.594Z,23.76
2019-04-28T21:41:54.643Z,23.64
2019-04-28T21:44:22.702Z,24.30
2019-04-28T21:47:07.464Z,24.28
2019-04-28T21:49:35.543Z,24.03
2019-04-28T21:52:01.699Z,24.20
2019-04-28T21:54:27.892Z,23.72
2019-04-28T21:56:54.070Z,24.18
2019-04-28T21:59:20.232Z,23.98
2019-04-28T22:01:46.660Z,23.90
2019-04-28T22:04:12.831Z,23.86
2019-04-28T22:06:39.030Z,23.68
2019-04-28T22:09:05.939Z,23.21
2019-04-28T22:11:32.097Z,23.67
2019-04-28T22:13:58.257Z,23.00
2019-04-28T22:16:24.475Z,23.28
2019-04-28T22:18:50.628Z,23.28
2019-04-28T22:21:16.911Z,22.68
2019-04-28T22:23:53.761Z,22.22
2019-04-28T22:26:38.339Z,21.69
2019-04-28T22:29:04.523Z,21.42
2019-04-28T22:31:30.704Z,22.60
2019-04-28T22:33:56.876Z,23.03
2019-04-28T22:36:23.058Z,22.96
2019-04-28T22:38:49.227Z,23.97
2019-04-28T22:41:15.383Z,24.00
2019-04-28T22:43:41.579Z,23.61
2019-04-28T22:46:12.510Z,23.76
2019-04-28T22:48:38.797Z,24.20
2019-04-28T22:51:04.982Z,24.41
2019-04-28T22:53:33.037Z,24.55
2019-04-28T22:56:10.210Z,24.48
2019-04-28T22:58:44.030Z,24.35
2019-04-28T23:01:15.193Z,24.33
2019-04-28T23:03:52.119Z,24.23
2019-04-28T23:06:18.976Z,24.24
2019-04-28T23:08:45.184Z,24.17
2019-04-28T23:11:11.469Z,24.06
2019-04-28T23:13:37.643Z,23.92
2019-04-28T23:16:04.017Z,23.93
2019-04-28T23:18:30.306Z,23.92
2019-04-28T23:21:00.877Z,23.15
2019-04-28T23:23:27.064Z,23.27
2019-04-28T23:25:53.243Z,22.91
2019-04-28T23:28:19.387Z,23.36
2019-04-28T23:30:46.210Z,23.46
2019-04-28T23:33:12.379Z,23.08
2019-04-28T23:35:38.543Z,22.13
2019-04-28T23:38:04.855Z,22.47
2019-04-28T23:40:31.003Z,22.79
2019-04-28T23:43:04.741Z,22.78
2019-04-28T23:45:32.904Z,23.08
2019-04-28T23:47:59.116Z,23.27
2019-04-28T23:50:27.185Z,23.59
2019-04-28T23:52:55.313Z,23.65
2019-04-28T23:55:21.796Z,23.70
2019-04-28T23:57:47.951Z,23.52
